Kezdőlap
METAR-TAF:

METAR-TAF

Repülőterek :

Tete, Mozambik

földrajzi szélesség: 16-06S, földrajzi hosszúság: 033-38E, magasság: 160 m

Jelenlegi meteorológiai megfigyelések

A jelentés 37 perccel ezelõtt készült, 06:00 UTC
Szélcsend
Hőmérséklet 21°C
Páratartalom 73%
Légköri nyomás 1026 hPa
Látótávolság 10 km, vagy több
Kevés felhő 2000 lábon

METAR: FQTT 280600Z 00000KT 9999 FEW020 21/16 Q1026

Idő: 08:37 (06:37 UTC)

Előrejelzés

A jelentés 2 órával és 37 perccel ezelõtt készült, 04:00 UTC
Az előrejelzés 28-én 06 óra UTC és 29-én 06 óra UTC között érvényes
Dél-délkeleti szél 10 kt
Látótávolság 10 km, vagy több
Szórványos felhőzet 2000 lábon

TAF: FQTT 280400Z 2806/2906 16010KT 9999 SCT020 TX31/2813Z TN19/2902Z

Meteorológiai megfigyelések és előrejelzések több, mint 4000 repülőtéren (METAR és TAF jelentéseket).

A térképen piros és sárga pontok jelzik az elérhető meteorológiai állomásokat.

Mozgassa az egeret a pont fölött, hogy megjelenjen az állomás neve.

Azután kattintson az időjárási megfigyelések és előrejelzések megtekintéséhez.

A térkép megváltoztatása: kattintson a fekete keresztel jelölt zöld gombra ráközelítéshez, a vonallal jelölt zöld gombra távolításhoz, vagy a zöld nyilakra a szomszédos térképek eléréséhez.


METAR-TAF: